createdAt,value
2022-10-06T00:01:11.260Z,15.80
2022-10-06T00:04:12.910Z,15.80
2022-10-06T00:07:15.224Z,15.80
2022-10-06T00:10:17.659Z,15.80
2022-10-06T00:13:19.257Z,15.90
2022-10-06T00:16:22.394Z,15.80
2022-10-06T00:19:24.602Z,16.00
2022-10-06T00:22:26.185Z,15.90
2022-10-06T00:25:32.006Z,16.00
2022-10-06T00:28:33.975Z,15.90
2022-10-06T00:31:36.204Z,15.90
2022-10-06T00:34:37.893Z,16.00
2022-10-06T00:37:39.489Z,15.90
2022-10-06T00:40:49.248Z,15.90
2022-10-06T00:43:56.909Z,16.00
2022-10-06T00:46:58.732Z,15.90
2022-10-06T00:50:02.611Z,16.00
2022-10-06T00:53:05.257Z,15.90
2022-10-06T00:56:06.865Z,16.00
2022-10-06T00:59:17.868Z,15.90
2022-10-06T01:02:29.456Z,15.90
2022-10-06T01:05:35.092Z,16.00
2022-10-06T01:08:37.791Z,15.90
2022-10-06T01:11:39.480Z,15.90
2022-10-06T01:14:42.916Z,16.00
2022-10-06T01:18:18.747Z,16.00
2022-10-06T01:21:33.623Z,16.00
2022-10-06T01:24:35.833Z,15.70
2022-10-06T01:27:40.228Z,15.50
2022-10-06T01:30:52.883Z,15.30
2022-10-06T01:33:55.595Z,15.00
2022-10-06T01:36:57.175Z,14.80
2022-10-06T01:39:58.857Z,14.80
2022-10-06T01:43:00.420Z,14.70
2022-10-06T01:46:02.071Z,14.60
2022-10-06T01:49:03.890Z,14.50
2022-10-06T01:52:05.548Z,14.40
2022-10-06T01:55:07.863Z,14.40
2022-10-06T01:58:11.143Z,14.30
2022-10-06T02:01:13.194Z,14.20
2022-10-06T02:04:14.893Z,14.10
2022-10-06T02:07:16.567Z,14.00
2022-10-06T02:10:18.308Z,13.50
2022-10-06T02:13:20.185Z,13.70
2022-10-06T02:16:22.262Z,13.60
2022-10-06T02:19:23.976Z,13.60
2022-10-06T02:26:50.181Z,13.50
2022-10-06T02:29:55.773Z,13.50
2022-10-06T02:32:57.333Z,13.40
2022-10-06T02:35:59.399Z,13.40
2022-10-06T02:39:01.028Z,13.40
2022-10-06T02:42:05.089Z,13.30
2022-10-06T02:45:07.283Z,13.30
2022-10-06T02:48:11.418Z,13.30
2022-10-06T02:51:15.543Z,13.30
2022-10-06T02:54:17.343Z,13.30
2022-10-06T02:57:18.952Z,13.40
2022-10-06T03:00:21.293Z,13.40
2022-10-06T03:03:22.940Z,13.40
2022-10-06T03:06:26.673Z,13.40
2022-10-06T03:09:28.404Z,13.40
2022-10-06T03:12:30.027Z,13.40
2022-10-06T03:15:31.643Z,13.60
2022-10-06T03:18:33.400Z,13.30
2022-10-06T03:21:41.296Z,13.30
2022-10-06T03:24:42.889Z,13.30
2022-10-06T03:27:44.475Z,13.30
2022-10-06T03:30:46.047Z,13.30
2022-10-06T03:33:47.780Z,13.30
2022-10-06T03:36:49.384Z,13.30
2022-10-06T03:39:50.979Z,13.30
2022-10-06T03:42:52.564Z,13.30
2022-10-06T03:45:59.107Z,13.30
2022-10-06T03:49:01.556Z,13.20
2022-10-06T03:52:03.203Z,13.30
2022-10-06T03:55:05.097Z,13.30
2022-10-06T03:58:06.703Z,13.30
2022-10-06T04:01:33.301Z,13.30
2022-10-06T04:04:35.032Z,13.30
2022-10-06T04:07:36.620Z,13.20
2022-10-06T04:10:38.219Z,13.10
2022-10-06T04:13:40.715Z,13.10
2022-10-06T04:16:47.614Z,13.10
2022-10-06T04:19:49.229Z,13.10
2022-10-06T04:22:50.815Z,13.00
2022-10-06T04:25:59.258Z,13.00
2022-10-06T04:29:00.945Z,13.10
2022-10-06T04:32:02.592Z,13.00
2022-10-06T04:35:04.471Z,13.00
2022-10-06T04:38:06.034Z,13.00
2022-10-06T04:41:13.364Z,12.90
2022-10-06T04:44:15.076Z,12.90
2022-10-06T04:47:16.645Z,12.90
2022-10-06T04:50:18.312Z,12.80
2022-10-06T04:53:19.968Z,12.80
2022-10-06T04:56:27.127Z,12.80
2022-10-06T04:59:47.200Z,12.80
2022-10-06T05:02:48.908Z,12.70
2022-10-06T05:05:50.479Z,12.70
2022-10-06T05:08:57.708Z,12.70
2022-10-06T05:11:59.820Z,12.70
2022-10-06T05:15:01.572Z,12.70
2022-10-06T05:18:03.551Z,12.60
2022-10-06T05:21:08.929Z,12.60
2022-10-06T05:24:10.540Z,12.50
2022-10-06T05:27:12.800Z,12.50
2022-10-06T05:30:14.560Z,12.60
2022-10-06T05:33:16.208Z,12.50
2022-10-06T05:36:23.248Z,12.50
2022-10-06T05:39:24.901Z,12.50
2022-10-06T05:42:29.684Z,12.40
2022-10-06T05:45:31.554Z,12.50
2022-10-06T05:48:33.553Z,12.50
2022-10-06T05:51:36.567Z,12.50
2022-10-06T05:54:38.148Z,12.40
2022-10-06T05:57:39.765Z,12.40
2022-10-06T06:00:41.346Z,12.50
2022-10-06T06:03:46.805Z,12.60
2022-10-06T06:06:51.216Z,12.60
2022-10-06T06:09:53.261Z,12.60
2022-10-06T06:12:54.849Z,12.60
2022-10-06T06:16:04.298Z,12.80
2022-10-06T06:19:07.681Z,12.90
2022-10-06T06:22:09.444Z,13.20
2022-10-06T06:25:12.884Z,13.30
2022-10-06T06:28:14.552Z,13.30
2022-10-06T06:31:27.980Z,13.40
2022-10-06T06:34:29.992Z,13.50
2022-10-06T06:37:40.741Z,13.60
2022-10-06T06:40:42.333Z,13.70
2022-10-06T06:43:44.480Z,13.80
2022-10-06T06:46:49.075Z,14.00
2022-10-06T06:49:50.694Z,14.20
2022-10-06T06:52:54.056Z,14.30
2022-10-06T06:55:55.742Z,14.40
2022-10-06T06:58:58.094Z,14.60
2022-10-06T07:02:01.096Z,14.70
2022-10-06T07:05:02.780Z,14.80
2022-10-06T07:08:04.378Z,15.00
2022-10-06T07:11:15.689Z,15.10
2022-10-06T07:14:18.276Z,15.10
2022-10-06T07:17:38.656Z,15.20
2022-10-06T07:20:59.040Z,15.30
2022-10-06T07:24:31.204Z,15.50
2022-10-06T07:27:44.470Z,15.60
2022-10-06T07:30:46.093Z,15.50
2022-10-06T07:33:47.771Z,15.50
2022-10-06T07:36:52.606Z,15.40
2022-10-06T07:39:54.420Z,15.50
2022-10-06T07:42:56.012Z,16.00
2022-10-06T07:45:59.744Z,16.20
2022-10-06T07:49:01.362Z,16.10
2022-10-06T07:52:03.137Z,16.10
2022-10-06T07:55:07.957Z,16.00
2022-10-06T07:58:15.118Z,15.90
2022-10-06T08:01:19.136Z,15.90
2022-10-06T08:04:20.903Z,15.60
2022-10-06T08:07:22.562Z,15.60
2022-10-06T08:10:24.935Z,15.70
2022-10-06T08:13:27.172Z,15.90
2022-10-06T08:16:30.118Z,15.80
2022-10-06T08:19:31.966Z,16.00
2022-10-06T08:22:33.752Z,16.10
2022-10-06T08:25:38.693Z,16.10
2022-10-06T08:28:44.361Z,15.90
2022-10-06T08:31:46.083Z,15.70
2022-10-06T08:34:51.133Z,15.60
2022-10-06T08:37:53.873Z,15.90
2022-10-06T08:40:55.525Z,16.00
2022-10-06T08:44:00.426Z,16.20
2022-10-06T08:47:05.706Z,16.50
2022-10-06T08:50:12.762Z,16.80
2022-10-06T08:53:29.917Z,16.70
2022-10-06T08:56:38.792Z,16.40
2022-10-06T08:59:45.253Z,16.50
2022-10-06T09:02:48.850Z,16.50
2022-10-06T09:05:58.364Z,16.30
2022-10-06T09:09:37.968Z,16.20
2022-10-06T09:12:56.278Z,16.20
2022-10-06T09:16:09.056Z,16.20
2022-10-06T09:19:24.765Z,16.20
2022-10-06T09:22:31.071Z,16.40
2022-10-06T09:25:33.448Z,16.50
2022-10-06T09:28:36.955Z,16.50
2022-10-06T09:31:50.390Z,16.60
2022-10-06T09:34:59.501Z,16.60
2022-10-06T09:38:08.131Z,16.60
2022-10-06T09:41:13.234Z,16.50
2022-10-06T09:44:27.508Z,16.50
2022-10-06T09:47:29.087Z,16.30
2022-10-06T09:50:30.709Z,16.30
2022-10-06T09:53:35.557Z,16.00
2022-10-06T09:56:44.999Z,16.00
2022-10-06T09:59:47.455Z,16.00
2022-10-06T10:02:59.482Z,15.80
2022-10-06T10:06:02.155Z,15.80
2022-10-06T10:09:15.613Z,15.80
2022-10-06T10:12:24.352Z,15.60
2022-10-06T10:15:33.070Z,15.60
2022-10-06T10:18:35.412Z,15.60
2022-10-06T10:21:37.160Z,15.80
2022-10-06T10:24:51.168Z,16.00
2022-10-06T10:28:03.672Z,16.30
2022-10-06T10:31:14.527Z,16.40
2022-10-06T10:34:56.313Z,16.20
2022-10-06T10:38:18.992Z,16.10
2022-10-06T10:41:29.500Z,15.90
2022-10-06T10:44:35.561Z,15.80
2022-10-06T10:47:41.707Z,15.80
2022-10-06T10:50:53.296Z,15.80
2022-10-06T10:54:19.063Z,15.70
2022-10-06T10:57:28.724Z,15.90
2022-10-06T11:00:35.237Z,16.00
2022-10-06T11:03:36.930Z,16.20
2022-10-06T11:07:05.299Z,16.30
2022-10-06T11:10:13.367Z,16.50
2022-10-06T11:13:44.745Z,16.60
2022-10-06T11:17:03.631Z,16.70
2022-10-06T11:20:33.523Z,16.60
2022-10-06T11:23:57.389Z,16.50
2022-10-06T11:27:20.141Z,16.30
2022-10-06T11:30:26.847Z,16.20
2022-10-06T11:33:34.611Z,16.30
2022-10-06T11:36:54.971Z,16.40
2022-10-06T11:40:34.936Z,16.50
2022-10-06T11:43:54.523Z,16.60
2022-10-06T11:47:02.110Z,16.50
2022-10-06T11:50:33.197Z,16.50
2022-10-06T11:53:49.424Z,16.50
2022-10-06T11:56:51.020Z,16.50
2022-10-06T11:59:55.350Z,16.50
2022-10-06T12:03:29.451Z,16.30
2022-10-06T12:06:43.494Z,16.30
2022-10-06T12:09:46.149Z,16.10
2022-10-06T12:13:06.801Z,15.90
2022-10-06T12:20:16.321Z,15.90
2022-10-06T12:23:34.447Z,15.90
2022-10-06T12:26:49.300Z,15.90
2022-10-06T12:30:02.124Z,16.00
2022-10-06T12:33:05.714Z,16.00
2022-10-06T12:36:19.985Z,16.20
2022-10-06T12:39:24.440Z,16.30
2022-10-06T12:42:31.137Z,16.20
2022-10-06T12:45:33.432Z,16.10
2022-10-06T12:48:46.593Z,16.20
2022-10-06T12:51:53.373Z,16.20
2022-10-06T12:55:11.232Z,16.30
2022-10-06T12:58:23.681Z,16.30
2022-10-06T13:01:27.863Z,16.30
2022-10-06T13:04:38.378Z,16.30
2022-10-06T13:08:07.285Z,16.20
2022-10-06T13:11:28.165Z,16.20
2022-10-06T13:14:29.741Z,16.10
2022-10-06T13:17:31.621Z,16.10
2022-10-06T13:20:50.229Z,16.10
2022-10-06T13:23:52.281Z,16.10
2022-10-06T13:26:54.545Z,16.00
2022-10-06T13:30:19.643Z,16.00
2022-10-06T13:33:26.404Z,16.00
2022-10-06T13:36:29.833Z,16.00
2022-10-06T13:39:31.815Z,16.00
2022-10-06T13:42:34.780Z,16.00
2022-10-06T13:45:42.410Z,15.90
2022-10-06T13:48:48.505Z,15.90
2022-10-06T13:51:53.314Z,15.90
2022-10-06T13:54:57.961Z,15.90
2022-10-06T13:58:03.319Z,15.90
2022-10-06T14:01:08.672Z,15.90
2022-10-06T14:04:22.510Z,15.90
2022-10-06T14:07:24.244Z,15.90
2022-10-06T14:11:21.839Z,15.90
2022-10-06T14:14:23.521Z,15.90
2022-10-06T14:17:28.309Z,15.90
2022-10-06T14:20:47.289Z,15.90
2022-10-06T14:23:50.447Z,15.90
2022-10-06T14:26:54.899Z,15.90
2022-10-06T14:29:57.125Z,15.80
2022-10-06T14:32:59.003Z,15.80
2022-10-06T14:36:00.751Z,15.80
2022-10-06T14:39:03.945Z,15.80
2022-10-06T14:42:07.691Z,15.80
2022-10-06T14:45:13.707Z,15.80
2022-10-06T14:48:15.327Z,15.70
2022-10-06T14:51:18.744Z,15.70
2022-10-06T14:54:21.481Z,15.70
2022-10-06T14:57:23.153Z,15.70
2022-10-06T15:00:25.100Z,15.70
2022-10-06T15:03:26.797Z,15.70
2022-10-06T15:06:47.251Z,15.70
2022-10-06T15:09:48.820Z,15.70
2022-10-06T15:12:52.144Z,15.60
2022-10-06T15:15:59.832Z,15.60
2022-10-06T15:19:05.387Z,15.60
2022-10-06T15:22:08.879Z,15.70
2022-10-06T15:25:29.520Z,15.60
2022-10-06T15:28:50.133Z,15.60
2022-10-06T15:31:55.074Z,15.60
2022-10-06T15:34:56.714Z,15.60
2022-10-06T15:37:58.729Z,15.60
2022-10-06T15:41:04.539Z,15.50
2022-10-06T15:44:07.148Z,15.50
2022-10-06T15:47:08.791Z,15.50
2022-10-06T15:50:12.947Z,15.40
2022-10-06T15:53:16.804Z,15.40
2022-10-06T15:56:18.535Z,15.40
2022-10-06T15:59:24.380Z,15.30
2022-10-06T16:02:27.150Z,15.30
2022-10-06T16:05:47.398Z,15.30
2022-10-06T16:08:49.078Z,15.30
2022-10-06T16:11:51.634Z,15.20
2022-10-06T16:14:53.290Z,15.20
2022-10-06T16:18:11.319Z,15.10
2022-10-06T16:21:12.895Z,15.00
2022-10-06T16:24:16.034Z,15.00
2022-10-06T16:27:18.209Z,15.00
2022-10-06T16:30:19.790Z,14.90
2022-10-06T16:33:21.560Z,14.90
2022-10-06T16:36:23.320Z,14.90
2022-10-06T16:39:27.507Z,14.80
2022-10-06T16:42:29.113Z,14.80
2022-10-06T16:45:30.712Z,14.70
2022-10-06T16:48:37.863Z,14.60
2022-10-06T16:51:45.637Z,14.60
2022-10-06T16:54:47.269Z,14.50
2022-10-06T16:57:48.885Z,14.50
2022-10-06T17:00:57.960Z,14.50
2022-10-06T17:04:06.336Z,14.40
2022-10-06T17:07:08.345Z,14.30
2022-10-06T17:10:20.182Z,14.30
2022-10-06T17:13:22.639Z,14.20
2022-10-06T17:16:27.337Z,14.10
2022-10-06T17:19:30.290Z,14.00
2022-10-06T17:22:31.904Z,13.90
2022-10-06T17:25:33.779Z,13.80
2022-10-06T17:28:36.428Z,13.70
2022-10-06T17:31:40.891Z,13.60
2022-10-06T17:34:42.569Z,13.60
2022-10-06T17:37:44.825Z,13.50
2022-10-06T17:40:46.438Z,13.50
2022-10-06T17:43:50.346Z,13.40
2022-10-06T17:46:55.225Z,13.30
2022-10-06T17:49:57.001Z,13.20
2022-10-06T17:52:59.330Z,13.20
2022-10-06T17:56:11.441Z,13.10
2022-10-06T17:59:16.529Z,13.10
2022-10-06T18:02:18.246Z,13.00
2022-10-06T18:05:19.915Z,13.00
2022-10-06T18:08:23.481Z,12.90
2022-10-06T18:11:47.794Z,12.90
2022-10-06T18:14:50.335Z,12.90
2022-10-06T18:17:52.479Z,12.90
2022-10-06T18:21:01.892Z,12.90
2022-10-06T18:24:05.220Z,12.80
2022-10-06T18:27:08.020Z,12.90
2022-10-06T18:30:10.324Z,12.90
2022-10-06T18:36:33.919Z,12.70
2022-10-06T18:39:35.607Z,12.70
2022-10-06T18:42:38.850Z,12.60
2022-10-06T18:45:58.977Z,12.60
2022-10-06T18:49:05.757Z,12.50
2022-10-06T18:52:07.422Z,12.50
2022-10-06T18:55:09.056Z,12.50
2022-10-06T18:58:10.670Z,12.50
2022-10-06T19:01:12.893Z,12.50
2022-10-06T19:04:23.908Z,12.40
2022-10-06T19:07:30.704Z,12.40
2022-10-06T19:10:34.435Z,12.30
2022-10-06T19:13:37.403Z,12.30
2022-10-06T19:16:39.143Z,12.30
2022-10-06T19:19:44.109Z,12.20
2022-10-06T19:22:47.231Z,12.20
2022-10-06T19:25:49.739Z,12.30
2022-10-06T19:28:51.748Z,12.20
2022-10-06T19:31:59.142Z,12.20
2022-10-06T19:35:00.825Z,12.00
2022-10-06T19:38:02.435Z,12.10
2022-10-06T19:41:23.657Z,12.00
2022-10-06T19:44:26.275Z,11.90
2022-10-06T19:47:29.068Z,11.90
2022-10-06T19:50:30.818Z,11.80
2022-10-06T19:53:33.086Z,11.80
2022-10-06T19:56:34.994Z,11.80
2022-10-06T19:59:38.515Z,11.70
2022-10-06T20:02:43.203Z,11.70
2022-10-06T20:05:45.119Z,11.70
2022-10-06T20:08:46.807Z,11.60
2022-10-06T20:11:50.282Z,11.60
2022-10-06T20:14:53.254Z,11.60
2022-10-06T20:17:55.045Z,11.60
2022-10-06T20:20:58.583Z,11.50
2022-10-06T20:24:03.335Z,11.50
2022-10-06T20:27:05.028Z,11.40
2022-10-06T20:30:10.680Z,11.40
2022-10-06T20:33:12.263Z,11.40
2022-10-06T20:36:13.935Z,11.30
2022-10-06T20:39:36.906Z,11.20
2022-10-06T20:42:41.245Z,11.10
2022-10-06T20:45:42.943Z,11.00
2022-10-06T20:48:44.607Z,11.20
2022-10-06T20:51:51.522Z,11.00
2022-10-06T20:54:53.144Z,11.00
2022-10-06T20:57:54.868Z,11.00
2022-10-06T21:01:06.957Z,10.90
2022-10-06T21:04:09.176Z,10.90
2022-10-06T21:07:11.159Z,10.80
2022-10-06T21:10:12.795Z,10.70
2022-10-06T21:13:14.406Z,10.60
2022-10-06T21:16:21.741Z,10.60
2022-10-06T21:19:25.058Z,10.60
2022-10-06T21:22:29.655Z,10.30
2022-10-06T21:25:31.262Z,10.40
2022-10-06T21:28:38.196Z,10.30
2022-10-06T21:31:40.145Z,10.20
2022-10-06T21:34:41.813Z,10.20
2022-10-06T21:37:44.357Z,10.50
2022-10-06T21:40:46.146Z,10.20
2022-10-06T21:43:47.771Z,10.40
2022-10-06T21:46:52.261Z,10.40
2022-10-06T21:49:53.925Z,10.20
2022-10-06T21:52:55.521Z,10.10
2022-10-06T21:55:57.192Z,10.20
2022-10-06T21:59:21.546Z,10.40
2022-10-06T22:02:23.160Z,10.20
2022-10-06T22:05:24.847Z,10.20
2022-10-06T22:08:29.532Z,10.10
2022-10-06T22:11:34.242Z,10.10
2022-10-06T22:14:35.815Z,10.10
2022-10-06T22:17:37.398Z,10.00
2022-10-06T22:20:38.998Z,10.00
2022-10-06T22:23:45.684Z,10.00
2022-10-06T22:26:48.343Z,10.00
2022-10-06T22:29:49.950Z,10.00
2022-10-06T22:32:51.563Z,10.00
2022-10-06T22:35:53.163Z,10.00
2022-10-06T22:38:55.980Z,10.00
2022-10-06T22:41:57.559Z,9.90
2022-10-06T22:44:59.149Z,9.90
2022-10-06T22:48:00.725Z,9.90
2022-10-06T22:51:02.365Z,9.90
2022-10-06T22:54:04.107Z,9.90
2022-10-06T22:57:06.878Z,9.90
2022-10-06T23:00:09.107Z,9.90
2022-10-06T23:03:12.238Z,9.90
2022-10-06T23:06:15.868Z,9.90
2022-10-06T23:09:17.470Z,9.80
2022-10-06T23:12:19.070Z,9.80
2022-10-06T23:15:21.346Z,9.80
2022-10-06T23:18:22.934Z,9.70
2022-10-06T23:21:27.498Z,9.70
2022-10-06T23:24:29.394Z,9.60
2022-10-06T23:27:31.003Z,9.60
2022-10-06T23:30:34.859Z,9.60
2022-10-06T23:33:36.516Z,9.60
2022-10-06T23:36:38.945Z,9.60
2022-10-06T23:39:40.974Z,9.50
2022-10-06T23:42:43.643Z,9.50
2022-10-06T23:45:45.323Z,9.40
2022-10-06T23:48:48.493Z,9.30
2022-10-06T23:51:50.033Z,9.40
2022-10-06T23:54:51.626Z,9.40
2022-10-06T23:57:53.246Z,9.30
